createdAt,value
2022-10-29T00:00:40.523Z,14.2
2022-10-29T00:04:40.100Z,15.02
2022-10-29T00:08:40.330Z,17.75
2022-10-29T00:12:40.678Z,12.07
2022-10-29T00:16:40.388Z,22.83
2022-10-29T00:20:40.494Z,22.3
2022-10-29T00:24:40.438Z,9.98
2022-10-29T00:28:40.495Z,18.35
2022-10-29T00:32:40.574Z,12.57
2022-10-29T00:36:40.439Z,13.18
2022-10-29T00:40:40.772Z,11.38
2022-10-29T00:44:40.494Z,11.12
2022-10-29T00:48:40.505Z,17.45
2022-10-29T00:52:40.651Z,10.2
2022-10-29T00:56:40.764Z,15.9
2022-10-29T01:00:40.515Z,18.27
2022-10-29T01:04:41.157Z,15.57
2022-10-29T01:08:40.637Z,19.37
2022-10-29T01:12:40.644Z,15.2
2022-10-29T01:16:40.666Z,11.2
2022-10-29T01:20:40.568Z,7.15
2022-10-29T01:24:40.575Z,14.45
2022-10-29T01:28:40.336Z,10.9
2022-10-29T01:32:40.500Z,16.33
2022-10-29T01:36:40.636Z,15.02
2022-10-29T01:40:40.697Z,17.33
2022-10-29T01:44:39.668Z,14.8
2022-10-29T01:48:41.129Z,10.35
2022-10-29T01:52:40.511Z,13.07
2022-10-29T01:56:40.506Z,13.3
2022-10-29T02:00:40.605Z,12.15
2022-10-29T02:04:40.486Z,19.77
2022-10-29T02:08:40.536Z,16.1
2022-10-29T02:12:40.863Z,11.27
2022-10-29T02:16:39.544Z,14.27
2022-10-29T02:20:39.786Z,10.38
2022-10-29T02:24:40.892Z,15.7
2022-10-29T02:28:40.439Z,12.6
2022-10-29T02:32:40.824Z,14.65
2022-10-29T02:36:40.470Z,14.45
2022-10-29T02:40:40.583Z,14.73
2022-10-29T02:44:40.535Z,10.3
2022-10-29T02:48:40.449Z,22.55
2022-10-29T02:52:40.857Z,8.88
2022-10-29T02:56:40.567Z,10.3
2022-10-29T03:00:40.559Z,16.52
2022-10-29T03:04:40.506Z,8.15
2022-10-29T03:08:40.424Z,12.73
2022-10-29T03:12:41.126Z,12.63
2022-10-29T03:16:40.656Z,10.38
2022-10-29T03:20:40.457Z,15.68
2022-10-29T03:24:40.502Z,13.02
2022-10-29T03:28:40.738Z,15.45
2022-10-29T03:32:39.607Z,15.55
2022-10-29T03:36:40.835Z,10.02
2022-10-29T03:40:40.470Z,11
2022-10-29T03:44:40.235Z,11.88
2022-10-29T03:48:40.937Z,14.4
2022-10-29T03:52:40.576Z,13.45
2022-10-29T03:56:40.584Z,16.5
2022-10-29T04:00:40.762Z,9.85
2022-10-29T04:04:40.554Z,16.85
2022-10-29T04:08:40.474Z,8.57
2022-10-29T04:12:40.997Z,9.9
2022-10-29T04:16:40.576Z,15.55
2022-10-29T04:21:15.910Z,9.43
2022-10-29T04:28:43.282Z,13.85
2022-10-29T04:32:40.459Z,26.48
2022-10-29T04:36:39.734Z,11.65
2022-10-29T04:40:40.452Z,17.42
2022-10-29T04:44:40.522Z,10.07
2022-10-29T04:48:40.552Z,15.27
2022-10-29T04:52:39.911Z,14
2022-10-29T04:56:40.452Z,19.08
2022-10-29T05:00:40.507Z,13.55
2022-10-29T05:04:40.537Z,17.27
2022-10-29T05:08:40.433Z,12.18
2022-10-29T05:12:40.442Z,11.98
2022-10-29T05:16:40.852Z,9.68
2022-10-29T05:20:40.517Z,12.52
2022-10-29T05:24:40.993Z,12.2
2022-10-29T05:28:40.522Z,15.63
2022-10-29T05:32:40.588Z,15.98
2022-10-29T05:36:40.419Z,13.93
2022-10-29T05:40:40.498Z,19.05
2022-10-29T05:44:40.451Z,12.95
2022-10-29T05:48:40.577Z,14.85
2022-10-29T05:52:40.514Z,15.43
2022-10-29T05:56:40.414Z,11.23
2022-10-29T06:00:40.657Z,19
2022-10-29T06:04:40.503Z,19.02
2022-10-29T06:08:40.599Z,9.9
2022-10-29T06:12:40.496Z,14.73
2022-10-29T06:16:40.040Z,27.3
2022-10-29T06:20:40.966Z,14.05
2022-10-29T06:24:40.310Z,14.02
2022-10-29T06:28:41.000Z,21.5
2022-10-29T06:32:40.609Z,11.68
2022-10-29T06:36:40.503Z,15.13
2022-10-29T06:40:40.684Z,11.27
2022-10-29T06:44:39.771Z,15.25
2022-10-29T06:48:40.509Z,21.12
2022-10-29T06:52:40.482Z,9.55
2022-10-29T06:56:40.865Z,15.9
2022-10-29T07:00:41.182Z,11.48
2022-10-29T07:04:40.239Z,13.25
2022-10-29T07:08:40.467Z,18.27
2022-10-29T07:12:40.972Z,12.75
2022-10-29T07:16:40.378Z,15.52
2022-10-29T07:20:40.532Z,10.52
2022-10-29T07:24:40.507Z,18.8
2022-10-29T07:28:40.601Z,16.8
2022-10-29T07:32:40.478Z,21.1
2022-10-29T07:36:40.451Z,9.65
2022-10-29T07:40:40.868Z,15.63
2022-10-29T07:44:40.220Z,27.23
2022-10-29T07:48:40.333Z,12.18
2022-10-29T07:52:40.378Z,15.5
2022-10-29T07:56:43.727Z,10.73
2022-10-29T08:00:40.795Z,12.68
2022-10-29T08:04:39.806Z,19.73
2022-10-29T08:08:40.844Z,17.37
2022-10-29T08:12:40.507Z,8.6
2022-10-29T08:16:40.490Z,17.17
2022-10-29T08:20:40.589Z,14.32
2022-10-29T08:24:40.336Z,13.48
2022-10-29T08:28:40.719Z,13.18
2022-10-29T08:32:40.645Z,10.23
2022-10-29T08:36:40.767Z,17.23
2022-10-29T08:40:40.502Z,9.68
2022-10-29T08:44:40.293Z,9.77
2022-10-29T08:48:40.364Z,12.05
2022-10-29T08:52:48.329Z,18.15
2022-10-29T08:56:40.668Z,13.05
2022-10-29T09:00:40.753Z,11.82
2022-10-29T09:04:40.537Z,13.85
2022-10-29T09:08:40.269Z,16.85
2022-10-29T09:12:41.202Z,17.33
2022-10-29T09:20:40.572Z,8.93
2022-10-29T09:24:40.539Z,13.65
2022-10-29T09:28:39.435Z,13.25
2022-10-29T09:32:40.823Z,13.1
2022-10-29T09:36:40.568Z,10.8
2022-10-29T09:40:40.484Z,12.32
2022-10-29T09:44:40.451Z,15.35
2022-10-29T09:48:40.450Z,14.55
2022-10-29T09:52:40.545Z,12.3
2022-10-29T09:56:40.818Z,15.95
2022-10-29T10:00:40.545Z,15.6
2022-10-29T10:04:41.201Z,9.98
2022-10-29T10:08:40.768Z,17.08
2022-10-29T10:12:40.863Z,13.32
2022-10-29T10:16:40.363Z,16.7
2022-10-29T10:20:41.717Z,11.02
2022-10-29T10:24:41.015Z,16.25
2022-10-29T10:28:40.535Z,11.4
2022-10-29T10:32:41.063Z,14
2022-10-29T10:36:40.506Z,11.8
2022-10-29T10:40:40.711Z,17.52
2022-10-29T10:44:40.486Z,15.73
2022-10-29T10:48:40.663Z,12.7
2022-10-29T10:52:40.527Z,11.43
2022-10-29T10:56:40.578Z,13.98
2022-10-29T11:00:44.800Z,11.5
2022-10-29T11:04:40.485Z,9.98
2022-10-29T11:08:40.484Z,20.62
2022-10-29T11:12:40.799Z,12.32
2022-10-29T11:16:40.657Z,12.4
2022-10-29T11:20:40.464Z,14.15
2022-10-29T11:24:40.880Z,15.98
2022-10-29T11:28:40.531Z,14.18
2022-10-29T11:32:40.343Z,11.2
2022-10-29T11:36:40.804Z,10.73
2022-10-29T11:40:39.357Z,12.48
2022-10-29T11:44:40.470Z,25.77
2022-10-29T11:48:40.547Z,15.6
2022-10-29T11:52:40.775Z,13.82
2022-10-29T11:56:40.597Z,16.58
2022-10-29T12:00:40.681Z,22.98
2022-10-29T12:04:40.506Z,12.95
2022-10-29T12:08:41.301Z,14.98
2022-10-29T12:12:40.534Z,10.48
2022-10-29T12:16:40.752Z,16.8
2022-10-29T12:20:40.554Z,17.6
2022-10-29T12:24:40.554Z,15.55
2022-10-29T12:28:40.545Z,15
2022-10-29T12:32:40.888Z,17.48
2022-10-29T12:36:40.654Z,11.77
2022-10-29T12:40:40.478Z,22.83
2022-10-29T12:44:45.015Z,23.33
2022-10-29T12:48:40.491Z,11.95
2022-10-29T12:52:41.179Z,12.52
2022-10-29T12:56:40.509Z,17.3
2022-10-29T13:00:40.639Z,14.63
2022-10-29T13:04:40.685Z,12.1
2022-10-29T13:08:40.531Z,20.88
2022-10-29T13:12:40.637Z,16.05
2022-10-29T13:16:41.214Z,13.77
2022-10-29T13:20:40.493Z,21.4
2022-10-29T13:24:40.857Z,9.18
2022-10-29T13:28:40.539Z,17.8
2022-10-29T13:32:40.285Z,15.35
2022-10-29T13:36:40.546Z,21.37
2022-10-29T13:40:40.683Z,17.8
2022-10-29T13:44:40.442Z,14.87
2022-10-29T13:48:40.696Z,16.6
2022-10-29T13:52:40.347Z,15.77
2022-10-29T13:56:39.304Z,20.55
2022-10-29T14:00:40.038Z,20.58
2022-10-29T14:04:41.104Z,22.58
2022-10-29T14:08:40.334Z,11.75
2022-10-29T14:12:40.544Z,18.15
2022-10-29T14:16:40.492Z,21.42
2022-10-29T14:20:41.238Z,17.5
2022-10-29T14:24:40.857Z,18.6
2022-10-29T14:28:40.524Z,24.83
2022-10-29T14:32:40.584Z,22.6
2022-10-29T14:36:40.634Z,15.38
2022-10-29T14:40:40.542Z,20.23
2022-10-29T14:44:40.532Z,15.07
2022-10-29T14:48:40.362Z,15.52
2022-10-29T14:52:40.835Z,18.12
2022-10-29T14:56:40.467Z,22.15
2022-10-29T15:00:41.001Z,18.02
2022-10-29T15:04:40.684Z,19.58
2022-10-29T15:08:40.774Z,14.18
2022-10-29T15:12:40.456Z,19.27
2022-10-29T15:16:42.422Z,19.95
2022-10-29T15:20:40.531Z,19.7
2022-10-29T15:24:39.802Z,19.87
2022-10-29T15:28:40.778Z,19.75
2022-10-29T15:32:40.555Z,18.25
2022-10-29T15:36:40.548Z,26.92
2022-10-29T15:40:40.630Z,31.52
2022-10-29T15:44:40.288Z,15.5
2022-10-29T15:48:41.020Z,25.58
2022-10-29T15:52:40.851Z,23.45
2022-10-29T15:56:40.501Z,21.5
2022-10-29T16:00:41.324Z,28.23
2022-10-29T16:04:40.592Z,25.42
2022-10-29T16:08:40.295Z,19.75
2022-10-29T16:12:40.492Z,22.75
2022-10-29T16:16:40.705Z,23.87
2022-10-29T16:20:39.717Z,45.88
2022-10-29T16:24:40.393Z,31.3
2022-10-29T16:28:40.630Z,22.83
2022-10-29T16:32:40.649Z,20.83
2022-10-29T16:36:40.701Z,26.08
2022-10-29T16:40:40.652Z,24.25
2022-10-29T16:44:40.647Z,23.95
2022-10-29T16:48:40.644Z,31.67
2022-10-29T16:52:40.580Z,19.77
2022-10-29T16:56:40.619Z,28.7
2022-10-29T17:00:40.858Z,31.35
2022-10-29T17:04:40.552Z,27.8
2022-10-29T17:08:40.499Z,32.95
2022-10-29T17:12:40.528Z,34.78
2022-10-29T17:16:40.598Z,30.1
2022-10-29T17:20:40.545Z,29.12
2022-10-29T17:24:40.324Z,44.1
2022-10-29T17:28:40.534Z,31.48
2022-10-29T17:32:40.628Z,29.63
2022-10-29T17:36:40.907Z,37.72
2022-10-29T17:40:40.569Z,28.27
2022-10-29T17:44:40.485Z,21.73
2022-10-29T17:48:41.148Z,26.05
2022-10-29T17:52:40.447Z,31.5
2022-10-29T17:56:41.046Z,23.62
2022-10-29T18:00:40.615Z,25.12
2022-10-29T18:04:40.934Z,32.05
2022-10-29T18:08:40.495Z,36.53
2022-10-29T18:12:40.722Z,27.23
2022-10-29T18:16:40.538Z,30.58
2022-10-29T18:20:40.717Z,25.7
2022-10-29T18:24:40.802Z,34.03
2022-10-29T18:28:39.970Z,31.27
2022-10-29T18:32:40.536Z,37.33
2022-10-29T18:36:40.522Z,25.8
2022-10-29T18:40:40.467Z,30.08
2022-10-29T18:44:39.739Z,32.03
2022-10-29T18:48:40.747Z,27.33
2022-10-29T18:52:40.516Z,33.53
2022-10-29T18:56:40.787Z,23.98
2022-10-29T19:00:39.618Z,27.6
2022-10-29T19:04:40.510Z,25.12
2022-10-29T19:08:40.513Z,25.65
2022-10-29T19:12:41.318Z,22.25
2022-10-29T19:16:40.866Z,24.42
2022-10-29T19:20:40.662Z,23
2022-10-29T19:24:40.676Z,26.9
2022-10-29T19:28:40.261Z,26.5
2022-10-29T19:32:41.137Z,28.9
2022-10-29T19:36:40.711Z,25.05
2022-10-29T19:40:40.108Z,29.73
2022-10-29T19:44:41.058Z,29.58
2022-10-29T19:48:40.348Z,41.5
2022-10-29T19:52:40.839Z,25.9
2022-10-29T19:56:39.882Z,32.15
2022-10-29T20:00:40.733Z,36.15
2022-10-29T20:04:40.366Z,31.15
2022-10-29T20:08:40.566Z,35.42
2022-10-29T20:12:40.543Z,40.08
2022-10-29T20:16:39.349Z,36.95
2022-10-29T20:20:39.294Z,29.98
2022-10-29T20:24:40.529Z,31.3
2022-10-29T20:28:40.536Z,32.17
2022-10-29T20:32:40.499Z,38.97
2022-10-29T20:36:40.944Z,38.75
2022-10-29T20:40:40.484Z,36.5
2022-10-29T20:44:40.421Z,39.95
2022-10-29T20:48:40.378Z,38.3
2022-10-29T20:52:43.255Z,41.6
2022-10-29T20:56:40.570Z,46.13
2022-10-29T21:00:40.433Z,36.65
2022-10-29T21:04:40.314Z,40.8
2022-10-29T21:08:40.863Z,37.92
2022-10-29T21:12:40.612Z,41.95
2022-10-29T21:16:40.540Z,40.28
2022-10-29T21:20:41.165Z,45.5
2022-10-29T21:24:43.093Z,38.8
2022-10-29T21:28:40.311Z,40.17
2022-10-29T21:32:41.326Z,42.22
2022-10-29T21:36:40.849Z,48.03
2022-10-29T21:40:40.536Z,35.25
2022-10-29T21:44:40.446Z,49.45
2022-10-29T21:48:40.005Z,43.38
2022-10-29T21:52:40.641Z,44
2022-10-29T21:56:40.540Z,44.88
2022-10-29T22:00:39.755Z,45.1
2022-10-29T22:04:40.432Z,51.47
2022-10-29T22:08:40.551Z,37.75
2022-10-29T22:12:39.686Z,52.5
2022-10-29T22:16:39.812Z,34.63
2022-10-29T22:20:41.119Z,46.2
2022-10-29T22:24:40.480Z,43.15
2022-10-29T22:28:40.497Z,51.03
2022-10-29T22:32:40.516Z,45.67
2022-10-29T22:36:40.447Z,48.7
2022-10-29T22:40:40.868Z,32.35
2022-10-29T22:44:40.547Z,38.53
2022-10-29T22:48:40.515Z,37.53
2022-10-29T22:56:40.554Z,41.13
2022-10-29T23:00:40.664Z,34.95
2022-10-29T23:04:40.211Z,33.88
2022-10-29T23:08:40.735Z,43.58
2022-10-29T23:12:40.518Z,45.9
2022-10-29T23:16:40.672Z,43.8
2022-10-29T23:20:40.565Z,45.33
2022-10-29T23:24:40.476Z,44.13
2022-10-29T23:28:40.556Z,45.9
2022-10-29T23:32:40.660Z,46.47
2022-10-29T23:36:40.859Z,48.03
2022-10-29T23:40:40.882Z,56.03
2022-10-29T23:44:40.489Z,40.05
2022-10-29T23:48:40.562Z,45.2
2022-10-29T23:52:40.467Z,45.22
2022-10-29T23:56:40.439Z,45.55
